createdAt,value
2018-06-14T00:02:04.499Z,114.77
2018-06-14T00:04:35.745Z,119.42
2018-06-14T00:07:06.636Z,114.00
2018-06-14T00:09:37.656Z,115.35
2018-06-14T00:12:08.553Z,115.77
2018-06-14T00:14:39.760Z,118.28
2018-06-14T00:17:10.661Z,113.42
2018-06-14T00:19:41.671Z,116.97
2018-06-14T00:22:12.735Z,114.70
2018-06-14T00:24:43.777Z,112.88
2018-06-14T00:27:14.750Z,118.15
2018-06-14T00:29:45.729Z,116.42
2018-06-14T00:32:16.875Z,118.00
2018-06-14T00:34:47.905Z,112.40
2018-06-14T00:37:18.985Z,115.17
2018-06-14T00:39:49.852Z,118.87
2018-06-14T00:42:20.931Z,112.42
2018-06-14T00:44:51.761Z,118.90
2018-06-14T00:47:22.704Z,117.00
2018-06-14T00:49:53.675Z,113.25
2018-06-14T00:52:24.713Z,118.97
2018-06-14T00:54:55.655Z,115.88
2018-06-14T00:57:28.260Z,114.03
2018-06-14T00:59:59.337Z,114.08
2018-06-14T01:02:30.595Z,109.30
2018-06-14T01:05:01.626Z,117.05
2018-06-14T01:07:32.732Z,114.82
2018-06-14T01:10:03.871Z,115.77
2018-06-14T01:12:34.829Z,117.85
2018-06-14T01:15:05.857Z,112.75
2018-06-14T01:17:36.754Z,121.25
2018-06-14T01:20:07.704Z,113.15
2018-06-14T01:22:38.622Z,111.95
2018-06-14T01:25:09.973Z,109.25
2018-06-14T01:27:40.907Z,114.97
2018-06-14T01:30:11.827Z,113.77
2018-06-14T01:32:42.822Z,118.30
2018-06-14T01:35:13.820Z,111.70
2018-06-14T01:37:55.542Z,115.28
2018-06-14T01:40:26.544Z,115.62
2018-06-14T01:42:57.466Z,113.83
2018-06-14T01:45:28.468Z,117.10
2018-06-14T01:47:59.439Z,116.15
2018-06-14T01:50:30.478Z,117.03
2018-06-14T01:53:01.417Z,122.72
2018-06-14T01:55:33.893Z,120.75
2018-06-14T01:58:04.963Z,118.67
2018-06-14T02:00:35.983Z,118.90
2018-06-14T02:03:07.042Z,115.20
2018-06-14T02:05:38.273Z,117.00
2018-06-14T02:08:09.269Z,115.95
2018-06-14T02:10:40.306Z,113.12
2018-06-14T02:13:11.279Z,120.37
2018-06-14T02:15:42.268Z,114.47
2018-06-14T02:18:13.298Z,114.67
2018-06-14T02:20:44.202Z,120.87
2018-06-14T02:23:15.048Z,114.65
2018-06-14T02:25:46.427Z,121.90
2018-06-14T02:28:17.412Z,115.42
2018-06-14T02:30:48.396Z,119.15
2018-06-14T02:33:19.438Z,114.30
2018-06-14T02:35:50.348Z,116.33
2018-06-14T02:38:22.772Z,112.68
2018-06-14T02:40:54.528Z,109.60
2018-06-14T02:43:25.881Z,114.70
2018-06-14T02:45:56.776Z,109.20
2018-06-14T02:48:27.741Z,108.67
2018-06-14T02:50:58.557Z,106.30
2018-06-14T02:53:29.521Z,109.90
2018-06-14T02:56:00.548Z,113.08
2018-06-14T02:58:31.588Z,118.28
2018-06-14T03:01:02.388Z,108.50
2018-06-14T03:03:33.481Z,114.30
2018-06-14T03:06:04.411Z,111.52
2018-06-14T03:08:35.420Z,118.70
2018-06-14T03:11:06.369Z,121.57
2018-06-14T03:13:37.785Z,117.37
2018-06-14T03:16:08.617Z,123.15
2018-06-14T03:18:39.621Z,115.42
2018-06-14T03:21:10.518Z,120.47
2018-06-14T03:23:41.508Z,117.77
2018-06-14T03:26:12.524Z,114.88
2018-06-14T03:28:43.657Z,116.05
2018-06-14T03:31:14.605Z,116.15
2018-06-14T03:33:46.027Z,112.28
2018-06-14T03:36:17.097Z,113.10
2018-06-14T03:38:48.001Z,113.12
2018-06-14T03:41:19.054Z,116.88
2018-06-14T03:43:50.183Z,111.95
2018-06-14T03:46:21.260Z,114.00
2018-06-14T03:48:52.540Z,112.72
2018-06-14T03:51:23.581Z,113.37
2018-06-14T03:53:54.637Z,111.35
2018-06-14T03:56:25.771Z,116.20
2018-06-14T03:58:56.852Z,113.72
2018-06-14T04:01:27.829Z,110.95
2018-06-14T04:03:58.833Z,111.83
2018-06-14T04:06:29.847Z,109.07
2018-06-14T04:09:01.341Z,110.08
2018-06-14T04:11:32.374Z,111.77
2018-06-14T04:14:03.479Z,109.15
2018-06-14T04:16:34.488Z,110.50
2018-06-14T04:19:05.494Z,114.08
2018-06-14T04:21:36.613Z,114.03
2018-06-14T04:24:08.040Z,109.63
2018-06-14T04:26:38.986Z,107.87
2018-06-14T04:29:10.326Z,115.52
2018-06-14T04:31:41.272Z,114.37
2018-06-14T04:34:12.596Z,113.45
2018-06-14T04:36:43.530Z,117.15
2018-06-14T04:39:14.511Z,112.55
2018-06-14T04:41:45.403Z,112.77
2018-06-14T04:44:16.475Z,112.62
2018-06-14T04:46:47.508Z,110.78
2018-06-14T04:49:18.464Z,115.75
2018-06-14T04:51:49.412Z,112.40
2018-06-14T04:54:20.777Z,113.83
2018-06-14T04:56:51.889Z,111.45
2018-06-14T04:59:23.324Z,116.20
2018-06-14T05:01:54.313Z,118.13
2018-06-14T05:04:25.406Z,117.80
2018-06-14T05:06:56.361Z,116.95
2018-06-14T05:09:27.416Z,116.80
2018-06-14T05:11:58.572Z,114.75
2018-06-14T05:14:30.736Z,115.55
2018-06-14T05:17:01.727Z,112.62
2018-06-14T05:19:32.665Z,117.57
2018-06-14T05:22:03.719Z,115.77
2018-06-14T05:24:35.651Z,115.85
2018-06-14T05:27:06.966Z,114.75
2018-06-14T05:29:37.916Z,120.25
2018-06-14T05:32:08.913Z,114.47
2018-06-14T05:34:40.012Z,119.50
2018-06-14T05:37:11.043Z,116.88
2018-06-14T05:39:42.468Z,114.67
2018-06-14T05:42:13.912Z,119.97
2018-06-14T05:44:46.547Z,119.57
2018-06-14T05:47:19.010Z,116.82
2018-06-14T05:49:49.925Z,122.20
2018-06-14T05:52:22.653Z,119.33
2018-06-14T05:54:54.903Z,124.35
2018-06-14T05:57:26.172Z,118.67
2018-06-14T05:59:57.124Z,120.53
2018-06-14T06:02:28.144Z,118.72
2018-06-14T06:04:59.212Z,121.65
2018-06-14T06:07:30.157Z,120.65
2018-06-14T06:10:07.919Z,125.58
2018-06-14T06:12:45.359Z,126.25
2018-06-14T06:15:16.942Z,123.80
2018-06-14T06:17:48.096Z,122.62
2018-06-14T06:20:19.597Z,127.02
2018-06-14T06:22:50.497Z,124.55
2018-06-14T06:25:21.484Z,119.60
2018-06-14T06:27:52.507Z,119.35
2018-06-14T06:30:23.594Z,118.50
2018-06-14T06:32:54.613Z,116.57
2018-06-14T06:35:26.414Z,120.77
2018-06-14T06:37:57.427Z,114.97
2018-06-14T06:40:28.467Z,116.22
2018-06-14T06:42:59.630Z,120.42
2018-06-14T06:45:31.544Z,122.70
2018-06-14T06:48:02.638Z,116.73
2018-06-14T06:50:33.635Z,116.40
2018-06-14T06:53:04.861Z,110.32
2018-06-14T06:55:35.919Z,115.40
2018-06-14T06:58:06.929Z,117.35
2018-06-14T07:00:38.155Z,116.73
2018-06-14T07:03:09.688Z,114.70
2018-06-14T07:05:40.753Z,117.70
2018-06-14T07:08:11.653Z,116.65
2018-06-14T07:10:42.758Z,115.25
2018-06-14T07:13:13.954Z,119.45
2018-06-14T07:15:45.010Z,111.45
2018-06-14T07:18:15.954Z,114.05
2018-06-14T07:20:46.923Z,115.05
2018-06-14T07:23:18.056Z,117.57
2018-06-14T07:25:51.940Z,117.17
2018-06-14T07:28:23.379Z,115.90
2018-06-14T07:30:54.393Z,116.30
2018-06-14T07:33:25.872Z,120.17
2018-06-14T07:35:56.818Z,120.77
2018-06-14T07:38:27.954Z,119.65
2018-06-14T07:40:58.996Z,118.00
2018-06-14T07:43:30.053Z,121.57
2018-06-14T07:46:01.188Z,118.22
2018-06-14T07:48:32.197Z,116.35
2018-06-14T07:51:03.283Z,119.35
2018-06-14T07:53:34.317Z,124.38
2018-06-14T07:56:05.662Z,118.53
2018-06-14T07:58:37.245Z,119.33
2018-06-14T08:01:12.524Z,120.40
2018-06-14T08:03:48.582Z,119.10
2018-06-14T08:06:22.359Z,118.28
2018-06-14T08:08:54.259Z,117.55
2018-06-14T08:11:25.382Z,117.05
2018-06-14T08:13:56.406Z,113.55
2018-06-14T08:16:27.393Z,115.88
2018-06-14T08:18:58.658Z,120.65
2018-06-14T08:21:29.700Z,119.80
2018-06-14T08:24:00.972Z,118.65
2018-06-14T08:26:32.020Z,118.10
2018-06-14T08:29:03.073Z,118.28
2018-06-14T08:31:34.219Z,116.37
2018-06-14T08:34:05.673Z,120.95
2018-06-14T08:36:36.813Z,113.72
2018-06-14T08:39:09.419Z,117.05
2018-06-14T08:41:40.785Z,116.40
2018-06-14T08:44:11.893Z,118.13
2018-06-14T08:46:42.929Z,121.33
2018-06-14T08:49:14.383Z,118.93
2018-06-14T08:51:45.405Z,118.82
2018-06-14T08:54:16.455Z,121.17
2018-06-14T08:56:47.525Z,119.60
2018-06-14T08:59:19.073Z,117.90
2018-06-14T09:01:50.113Z,113.25
2018-06-14T09:04:21.406Z,118.80
2018-06-14T09:06:52.293Z,117.60
2018-06-14T09:09:23.361Z,121.42
2018-06-14T09:11:54.436Z,120.40
2018-06-14T09:14:26.004Z,121.20
2018-06-14T09:16:57.133Z,119.80
2018-06-14T09:19:28.196Z,119.62
2018-06-14T09:21:59.416Z,128.25
2018-06-14T09:24:30.443Z,122.07
2018-06-14T09:27:01.489Z,123.13
2018-06-14T09:29:32.725Z,118.22
2018-06-14T09:32:03.903Z,121.53
2018-06-14T09:34:35.061Z,119.70
2018-06-14T09:37:06.058Z,121.07
2018-06-14T09:39:37.023Z,118.87
2018-06-14T09:42:08.947Z,117.97
2018-06-14T09:44:40.123Z,121.55
2018-06-14T09:47:11.085Z,120.00
2018-06-14T09:49:42.264Z,117.67
2018-06-14T09:52:13.256Z,120.90
2018-06-14T09:54:44.224Z,122.07
2018-06-14T09:57:15.102Z,122.40
2018-06-14T09:59:46.216Z,125.42
2018-06-14T10:02:17.003Z,124.60
2018-06-14T10:04:48.166Z,125.95
2018-06-14T10:07:19.121Z,131.47
2018-06-14T10:09:50.109Z,129.10
2018-06-14T10:12:21.080Z,122.98
2018-06-14T10:14:52.833Z,118.85
2018-06-14T10:17:23.830Z,114.85
2018-06-14T10:19:55.245Z,116.15
2018-06-14T10:22:26.323Z,117.05
2018-06-14T10:24:57.476Z,113.90
2018-06-14T10:27:29.463Z,113.88
2018-06-14T10:30:00.776Z,115.70
2018-06-14T10:32:32.204Z,116.95
2018-06-14T10:35:03.368Z,118.25
2018-06-14T10:37:34.369Z,116.28
2018-06-14T10:40:05.820Z,111.20
2018-06-14T10:42:37.341Z,118.00
2018-06-14T10:45:09.314Z,115.45
2018-06-14T10:47:40.821Z,114.82
2018-06-14T10:50:11.677Z,116.17
2018-06-14T10:52:43.073Z,113.65
2018-06-14T10:55:14.062Z,116.93
2018-06-14T10:57:45.452Z,117.40
2018-06-14T11:00:24.732Z,118.42
2018-06-14T11:03:28.094Z,164.37
2018-06-14T11:06:07.893Z,119.85
2018-06-14T11:08:39.111Z,121.02
2018-06-14T11:11:09.911Z,119.93
2018-06-14T11:13:40.890Z,117.70
2018-06-14T11:16:11.829Z,116.00
2018-06-14T11:18:42.929Z,119.95
2018-06-14T11:21:13.862Z,119.00
2018-06-14T11:23:45.577Z,121.40
2018-06-14T11:26:17.603Z,120.75
2018-06-14T11:28:51.252Z,123.92
2018-06-14T11:31:24.105Z,116.45
2018-06-14T11:33:55.225Z,122.65
2018-06-14T11:36:26.105Z,119.97
2018-06-14T11:38:57.178Z,115.62
2018-06-14T11:41:28.486Z,119.37
2018-06-14T11:43:59.834Z,114.40
2018-06-14T11:46:30.841Z,118.40
2018-06-14T11:49:02.545Z,118.77
2018-06-14T11:51:34.128Z,122.35
2018-06-14T11:54:05.336Z,122.37
2018-06-14T11:56:36.192Z,122.72
2018-06-14T11:59:07.244Z,118.82
2018-06-14T12:01:38.248Z,120.82
2018-06-14T12:04:09.249Z,115.92
2018-06-14T12:06:40.289Z,121.40
2018-06-14T12:09:11.309Z,123.20
2018-06-14T12:11:42.312Z,120.10
2018-06-14T12:14:13.507Z,118.85
2018-06-14T12:16:44.939Z,120.37
2018-06-14T12:19:16.917Z,116.73
2018-06-14T12:21:47.940Z,118.10
2018-06-14T12:24:20.070Z,118.87
2018-06-14T12:26:51.342Z,118.28
2018-06-14T12:29:23.425Z,124.00
2018-06-14T12:31:54.718Z,122.40
2018-06-14T12:34:25.920Z,118.08
2018-06-14T12:36:57.084Z,122.67
2018-06-14T12:39:28.205Z,118.25
2018-06-14T12:41:59.513Z,123.18
2018-06-14T12:44:30.643Z,121.53
2018-06-14T12:47:02.038Z,122.25
2018-06-14T12:49:33.411Z,123.45
2018-06-14T12:52:04.439Z,120.40
2018-06-14T12:54:35.724Z,118.65
2018-06-14T12:57:06.956Z,118.28
2018-06-14T12:59:38.481Z,117.97
2018-06-14T13:02:09.599Z,117.50
2018-06-14T13:04:40.914Z,118.35
2018-06-14T13:07:11.811Z,121.72
2018-06-14T13:09:45.498Z,123.20
2018-06-14T13:12:17.645Z,116.12
2018-06-14T13:14:49.334Z,124.92
2018-06-14T13:17:20.487Z,118.93
2018-06-14T13:19:51.497Z,122.80
2018-06-14T13:22:22.689Z,118.95
2018-06-14T13:24:53.899Z,121.15
2018-06-14T13:27:25.049Z,124.00
2018-06-14T13:29:56.113Z,121.60
2018-06-14T13:32:27.273Z,122.87
2018-06-14T13:34:58.640Z,125.85
2018-06-14T13:37:29.718Z,122.42
2018-06-14T13:40:01.241Z,122.25
2018-06-14T13:42:37.623Z,122.78
2018-06-14T13:45:09.951Z,127.67
2018-06-14T13:47:55.010Z,122.02
2018-06-14T13:50:32.738Z,121.42
2018-06-14T13:53:05.148Z,123.72
2018-06-14T13:55:36.659Z,129.65
2018-06-14T13:58:10.327Z,128.57
2018-06-14T14:00:41.549Z,121.37
2018-06-14T14:03:13.126Z,120.22
2018-06-14T14:05:44.516Z,121.13
2018-06-14T14:08:15.866Z,125.22
2018-06-14T14:10:47.029Z,125.35
2018-06-14T14:13:18.088Z,124.72
2018-06-14T14:15:50.378Z,130.57
2018-06-14T14:18:21.561Z,125.38
2018-06-14T14:20:53.220Z,126.10
2018-06-14T14:23:24.825Z,126.10
2018-06-14T14:25:55.940Z,123.87
2018-06-14T14:28:27.053Z,124.07
2018-06-14T14:30:58.389Z,124.78
2018-06-14T14:33:29.705Z,125.40
2018-06-14T14:36:01.214Z,126.00
2018-06-14T14:38:32.294Z,127.02
2018-06-14T14:41:03.512Z,131.95
2018-06-14T14:43:35.722Z,122.20
2018-06-14T14:46:06.919Z,119.37
2018-06-14T14:48:39.126Z,138.95
2018-06-14T14:51:10.234Z,119.62
2018-06-14T14:53:42.157Z,121.62
2018-06-14T14:56:13.480Z,121.53
2018-06-14T14:58:44.562Z,122.60
2018-06-14T15:01:15.798Z,122.82
2018-06-14T15:03:47.494Z,123.05
2018-06-14T15:06:18.774Z,119.97
2018-06-14T15:08:50.127Z,122.35
2018-06-14T15:11:21.282Z,127.58
2018-06-14T15:13:52.983Z,123.58
2018-06-14T15:16:25.320Z,121.07
2018-06-14T15:18:56.952Z,125.62
2018-06-14T15:21:28.307Z,124.38
2018-06-14T15:23:59.628Z,123.95
2018-06-14T15:26:31.437Z,120.50
2018-06-14T15:29:02.793Z,121.42
2018-06-14T15:31:34.003Z,121.25
2018-06-14T15:34:05.525Z,125.05
2018-06-14T15:36:36.670Z,121.10
2018-06-14T15:39:09.534Z,121.45
2018-06-14T15:41:40.842Z,118.45
2018-06-14T15:44:13.499Z,118.97
2018-06-14T15:46:44.905Z,119.13
2018-06-14T15:49:16.724Z,119.77
2018-06-14T15:51:47.934Z,120.02
2018-06-14T15:54:19.458Z,122.62
2018-06-14T15:56:51.048Z,122.17
2018-06-14T15:59:24.052Z,121.57
2018-06-14T16:01:55.797Z,118.87
2018-06-14T16:04:26.948Z,125.35
2018-06-14T16:06:58.955Z,127.35
2018-06-14T16:09:30.162Z,122.05
2018-06-14T16:12:01.229Z,119.90
2018-06-14T16:14:35.068Z,122.10
2018-06-14T16:17:06.925Z,117.00
2018-06-14T16:19:38.483Z,125.45
2018-06-14T16:22:11.207Z,122.87
2018-06-14T16:24:45.470Z,123.30
2018-06-14T16:27:16.724Z,120.95
2018-06-14T16:29:48.631Z,121.95
2018-06-14T16:32:20.466Z,123.85
2018-06-14T16:34:52.112Z,122.72
2018-06-14T16:37:23.203Z,122.58
2018-06-14T16:39:55.434Z,119.00
2018-06-14T16:42:26.481Z,121.90
2018-06-14T16:44:57.965Z,120.10
2018-06-14T16:47:29.189Z,120.13
2018-06-14T16:50:00.345Z,118.05
2018-06-14T16:52:31.727Z,127.22
2018-06-14T16:55:03.636Z,123.10
2018-06-14T16:57:34.685Z,121.05
2018-06-14T17:00:06.260Z,122.55
2018-06-14T17:02:37.454Z,120.45
2018-06-14T17:05:09.684Z,120.13
2018-06-14T17:07:40.781Z,122.42
2018-06-14T17:10:12.021Z,121.97
2018-06-14T17:12:44.744Z,123.70
2018-06-14T17:15:15.778Z,120.55
2018-06-14T17:17:47.461Z,125.30
2018-06-14T17:20:18.625Z,126.10
2018-06-14T17:22:49.822Z,119.80
2018-06-14T17:25:20.910Z,127.00
2018-06-14T17:27:52.285Z,121.05
2018-06-14T17:30:23.361Z,120.40
2018-06-14T17:32:54.617Z,118.82
2018-06-14T17:35:25.773Z,120.42
2018-06-14T17:37:57.114Z,118.97
2018-06-14T17:40:28.437Z,121.37
2018-06-14T17:43:01.337Z,124.18
2018-06-14T17:45:39.928Z,119.67
2018-06-14T17:48:12.505Z,126.15
2018-06-14T17:50:43.587Z,122.10
2018-06-14T17:53:14.876Z,119.77
2018-06-14T17:55:51.155Z,121.90
2018-06-14T17:58:26.246Z,123.87
2018-06-14T18:00:57.559Z,124.58
2018-06-14T18:03:28.998Z,121.77
2018-06-14T18:06:00.643Z,115.08
2018-06-14T18:08:31.874Z,122.20
2018-06-14T18:11:03.388Z,121.42
2018-06-14T18:13:34.895Z,123.47
2018-06-14T18:16:06.178Z,120.90
2018-06-14T18:18:37.287Z,121.62
2018-06-14T18:21:08.885Z,121.17
2018-06-14T18:23:40.319Z,118.95
2018-06-14T18:26:11.988Z,120.87
2018-06-14T18:28:43.064Z,122.72
2018-06-14T18:31:14.628Z,119.42
2018-06-14T18:33:45.836Z,116.80
2018-06-14T18:36:17.333Z,120.62
2018-06-14T18:38:48.425Z,122.02
2018-06-14T18:41:19.697Z,124.20
2018-06-14T18:43:54.469Z,122.13
2018-06-14T18:46:26.095Z,123.38
2018-06-14T18:48:58.308Z,122.28
2018-06-14T18:51:30.145Z,119.77
2018-06-14T18:54:01.903Z,122.47
2018-06-14T18:56:33.713Z,114.15
2018-06-14T18:59:05.308Z,117.37
2018-06-14T19:01:37.669Z,121.33
2018-06-14T19:04:10.349Z,123.30
2018-06-14T19:06:43.606Z,124.45
2018-06-14T19:09:15.831Z,118.15
2018-06-14T19:11:48.523Z,116.12
2018-06-14T19:14:19.782Z,120.13
2018-06-14T19:16:51.389Z,118.90
2018-06-14T19:19:22.584Z,118.35
2018-06-14T19:21:53.789Z,117.13
2018-06-14T19:24:24.950Z,118.20
2018-06-14T19:26:56.440Z,119.87
2018-06-14T19:29:29.200Z,117.65
2018-06-14T19:32:00.661Z,120.17
2018-06-14T19:34:32.331Z,122.45
2018-06-14T19:37:03.638Z,117.65
2018-06-14T19:39:35.366Z,121.30
2018-06-14T19:42:06.844Z,118.90
2018-06-14T19:44:37.815Z,117.77
2018-06-14T19:47:11.639Z,121.35
2018-06-14T19:49:43.028Z,118.28
2018-06-14T19:52:14.279Z,120.97
2018-06-14T19:54:45.525Z,117.82
2018-06-14T19:57:16.645Z,119.13
2018-06-14T19:59:47.728Z,115.32
2018-06-14T20:02:18.967Z,115.42
2018-06-14T20:04:50.622Z,116.15
2018-06-14T20:07:21.746Z,119.80
2018-06-14T20:09:53.786Z,117.80
2018-06-14T20:12:25.274Z,120.20
2018-06-14T20:14:56.313Z,118.85
2018-06-14T20:17:27.711Z,113.55
2018-06-14T20:19:58.905Z,119.42
2018-06-14T20:22:29.906Z,120.33
2018-06-14T20:25:01.170Z,121.42
2018-06-14T20:27:32.299Z,118.33
2018-06-14T20:30:03.664Z,112.25
2018-06-14T20:32:34.915Z,118.70
2018-06-14T20:35:06.293Z,118.15
2018-06-14T20:37:39.184Z,117.53
2018-06-14T20:40:13.004Z,120.60
2018-06-14T20:42:44.644Z,116.53
2018-06-14T20:45:18.722Z,119.08
2018-06-14T20:47:49.813Z,116.15
2018-06-14T20:50:22.939Z,113.75
2018-06-14T20:52:54.380Z,118.30
2018-06-14T20:55:25.476Z,117.67
2018-06-14T20:57:56.849Z,112.72
2018-06-14T21:00:29.185Z,115.25
2018-06-14T21:03:00.128Z,114.92
2018-06-14T21:05:31.349Z,112.47
2018-06-14T21:08:02.768Z,116.45
2018-06-14T21:10:33.986Z,116.47
2018-06-14T21:13:05.000Z,116.60
2018-06-14T21:15:36.196Z,109.72
2018-06-14T21:18:13.954Z,111.47
2018-06-14T21:20:44.818Z,112.32
2018-06-14T21:23:16.300Z,108.05
2018-06-14T21:25:47.302Z,112.00
2018-06-14T21:28:18.241Z,112.83
2018-06-14T21:30:49.300Z,113.40
2018-06-14T21:33:20.406Z,111.80
2018-06-14T21:35:51.809Z,116.93
2018-06-14T21:38:22.765Z,113.50
2018-06-14T21:40:54.095Z,113.95
2018-06-14T21:43:25.197Z,109.72
2018-06-14T21:45:56.405Z,111.62
2018-06-14T21:48:27.381Z,114.20
2018-06-14T21:50:58.424Z,112.20
2018-06-14T21:53:29.467Z,112.65
2018-06-14T21:56:00.508Z,114.47
2018-06-14T21:58:32.125Z,112.90
2018-06-14T22:01:03.279Z,110.78
2018-06-14T22:03:39.623Z,112.17
2018-06-14T22:06:10.652Z,111.42
2018-06-14T22:08:41.582Z,110.12
2018-06-14T22:11:13.013Z,107.87
2018-06-14T22:13:44.163Z,107.65
2018-06-14T22:16:15.177Z,108.07
2018-06-14T22:18:46.321Z,110.03
2018-06-14T22:21:17.344Z,109.55
2018-06-14T22:23:50.347Z,109.60
2018-06-14T22:26:22.885Z,112.30
2018-06-14T22:28:56.182Z,108.37
2018-06-14T22:31:27.529Z,108.30
2018-06-14T22:34:09.623Z,108.57
2018-06-14T22:36:40.577Z,104.80
2018-06-14T22:39:11.623Z,110.37
2018-06-14T22:41:42.620Z,107.47
2018-06-14T22:44:13.674Z,103.40
2018-06-14T22:46:44.806Z,105.47
2018-06-14T22:49:15.880Z,105.75
2018-06-14T22:52:54.500Z,104.72
2018-06-14T22:55:26.259Z,108.85
2018-06-14T22:57:57.211Z,108.35
2018-06-14T23:00:39.718Z,105.47
2018-06-14T23:03:10.391Z,108.05
2018-06-14T23:05:41.323Z,111.92
2018-06-14T23:08:12.213Z,112.45
2018-06-14T23:10:54.147Z,111.12
2018-06-14T23:13:25.207Z,114.32
2018-06-14T23:15:56.318Z,108.57
2018-06-14T23:18:27.261Z,107.12
2018-06-14T23:20:58.276Z,106.92
2018-06-14T23:23:29.274Z,115.55
2018-06-14T23:26:00.311Z,112.22
2018-06-14T23:28:33.256Z,113.32
2018-06-14T23:31:04.567Z,111.30
2018-06-14T23:33:35.489Z,107.92
2018-06-14T23:36:06.553Z,109.07
2018-06-14T23:38:37.537Z,110.03
2018-06-14T23:41:08.618Z,112.70
2018-06-14T23:43:39.660Z,112.77
2018-06-14T23:46:10.732Z,112.03
2018-06-14T23:48:41.641Z,111.30
2018-06-14T23:51:12.621Z,111.75
2018-06-14T23:53:43.841Z,111.88
2018-06-14T23:56:14.770Z,109.75
2018-06-14T23:58:45.836Z,109.55
